createdAt,value
2023-04-27T00:00:47.223Z,187.77
2023-04-27T00:03:15.978Z,190.50
2023-04-27T00:05:44.166Z,197.10
2023-04-27T00:08:12.001Z,202.73
2023-04-27T00:10:39.804Z,199.93
2023-04-27T00:13:07.587Z,188.70
2023-04-27T00:15:36.713Z,184.93
2023-04-27T00:18:04.805Z,198.67
2023-04-27T00:20:33.802Z,186.00
2023-04-27T00:23:01.461Z,193.17
2023-04-27T00:25:29.413Z,177.20
2023-04-27T00:27:57.004Z,181.73
2023-04-27T00:30:26.108Z,191.33
2023-04-27T00:32:56.124Z,180.73
2023-04-27T00:35:24.404Z,174.00
2023-04-27T00:37:54.194Z,193.83
2023-04-27T00:40:22.190Z,180.73
2023-04-27T00:42:49.887Z,188.13
2023-04-27T00:45:17.589Z,180.43
2023-04-27T00:47:45.839Z,189.83
2023-04-27T00:50:15.592Z,178.00
2023-04-27T00:52:43.779Z,181.77
2023-04-27T00:55:11.678Z,184.73
2023-04-27T00:57:41.289Z,175.60
2023-04-27T01:00:11.855Z,179.47
2023-04-27T01:02:40.864Z,178.93
2023-04-27T01:05:09.365Z,188.20
2023-04-27T01:07:40.134Z,186.47
2023-04-27T01:10:08.972Z,182.13
2023-04-27T01:12:36.968Z,170.50
2023-04-27T01:15:07.858Z,185.67
2023-04-27T01:17:35.744Z,176.57
2023-04-27T01:20:07.571Z,181.50
2023-04-27T01:22:36.147Z,183.13
2023-04-27T01:25:06.319Z,182.90
2023-04-27T01:27:33.952Z,185.73
2023-04-27T01:30:01.593Z,177.43
2023-04-27T01:32:29.422Z,180.40
2023-04-27T01:34:57.104Z,202.20
2023-04-27T01:37:27.683Z,183.77
2023-04-27T01:39:55.326Z,181.93
2023-04-27T01:42:24.301Z,192.97
2023-04-27T01:44:51.952Z,179.23
2023-04-27T01:47:19.553Z,172.10
2023-04-27T01:49:47.171Z,175.47
2023-04-27T01:52:14.803Z,170.83
2023-04-27T01:54:42.438Z,163.63
2023-04-27T01:57:10.955Z,167.57
2023-04-27T01:59:39.906Z,160.10
2023-04-27T02:02:07.972Z,164.80
2023-04-27T02:04:37.827Z,146.13
2023-04-27T02:07:05.616Z,156.00
2023-04-27T02:09:33.359Z,151.50
2023-04-27T02:12:02.593Z,155.53
2023-04-27T02:14:30.404Z,140.90
2023-04-27T02:16:59.412Z,143.60
2023-04-27T02:19:27.063Z,144.13
2023-04-27T02:21:54.756Z,134.33
2023-04-27T02:24:22.952Z,128.90
2023-04-27T02:26:50.585Z,135.93
2023-04-27T02:29:19.486Z,133.30
2023-04-27T02:31:47.700Z,122.20
2023-04-27T02:34:16.930Z,134.77
2023-04-27T02:36:44.591Z,123.00
2023-04-27T02:39:12.643Z,128.03
2023-04-27T02:41:40.614Z,131.67
2023-04-27T02:44:09.128Z,126.57
2023-04-27T02:46:36.826Z,137.57
2023-04-27T02:49:04.440Z,133.87
2023-04-27T02:51:33.396Z,128.50
2023-04-27T02:54:01.192Z,135.87
2023-04-27T02:56:29.227Z,120.40
2023-04-27T02:58:57.267Z,125.73
2023-04-27T03:01:25.248Z,136.13
2023-04-27T03:03:53.189Z,135.73
2023-04-27T03:06:20.847Z,127.67
2023-04-27T03:08:49.834Z,129.90
2023-04-27T03:11:17.541Z,125.13
2023-04-27T03:13:45.202Z,133.37
2023-04-27T03:16:13.025Z,130.67
2023-04-27T03:18:41.192Z,132.90
2023-04-27T03:21:10.640Z,138.50
2023-04-27T03:23:38.623Z,136.03
2023-04-27T03:26:12.075Z,140.00
2023-04-27T03:28:39.996Z,143.53
2023-04-27T03:31:08.575Z,140.13
2023-04-27T03:33:37.394Z,143.07
2023-04-27T03:36:06.695Z,149.33
2023-04-27T03:38:35.499Z,143.23
2023-04-27T03:41:03.135Z,142.27
2023-04-27T03:43:32.457Z,158.27
2023-04-27T03:46:00.310Z,147.40
2023-04-27T03:48:27.991Z,163.90
2023-04-27T03:50:56.551Z,163.87
2023-04-27T03:53:24.221Z,161.67
2023-04-27T03:55:52.433Z,136.83
2023-04-27T03:58:20.399Z,159.87
2023-04-27T04:01:14.704Z,146.67
2023-04-27T04:03:43.390Z,143.20
2023-04-27T04:06:12.679Z,145.30
2023-04-27T04:08:40.534Z,136.97
2023-04-27T04:11:08.159Z,154.27
2023-04-27T04:13:37.075Z,149.47
2023-04-27T04:16:05.853Z,146.93
2023-04-27T04:18:36.042Z,152.07
2023-04-27T04:21:04.212Z,156.50
2023-04-27T04:23:32.862Z,149.63
2023-04-27T04:26:02.084Z,151.57
2023-04-27T04:28:33.830Z,147.50
2023-04-27T04:31:02.736Z,158.73
2023-04-27T04:33:31.147Z,169.53
2023-04-27T04:36:00.384Z,147.53
2023-04-27T04:38:28.421Z,159.57
2023-04-27T04:40:56.088Z,160.30
2023-04-27T04:43:23.833Z,171.57
2023-04-27T04:45:51.612Z,158.77
2023-04-27T04:48:20.287Z,159.40
2023-04-27T04:50:48.104Z,141.27
2023-04-27T04:53:17.086Z,154.20
2023-04-27T04:55:44.825Z,159.03
2023-04-27T04:58:12.435Z,153.87
2023-04-27T05:00:40.046Z,152.10
2023-04-27T05:03:08.048Z,167.40
2023-04-27T05:05:35.827Z,163.80
2023-04-27T05:08:03.518Z,164.70
2023-04-27T05:10:32.547Z,167.60
2023-04-27T05:13:00.161Z,177.27
2023-04-27T05:15:27.800Z,156.37
2023-04-27T05:17:55.430Z,171.73
2023-04-27T05:20:23.498Z,168.63
2023-04-27T05:22:51.407Z,165.07
2023-04-27T05:25:19.304Z,183.30
2023-04-27T05:27:48.264Z,177.23
2023-04-27T05:30:16.025Z,186.43
2023-04-27T05:32:43.642Z,192.27
2023-04-27T05:35:11.337Z,181.43
2023-04-27T05:37:39.033Z,177.50
2023-04-27T05:40:09.632Z,182.57
2023-04-27T05:42:37.349Z,194.50
2023-04-27T05:45:07.828Z,200.13
2023-04-27T05:47:35.573Z,200.50
2023-04-27T05:50:03.693Z,194.23
2023-04-27T05:52:31.661Z,197.57
2023-04-27T05:54:59.721Z,190.97
2023-04-27T05:57:28.022Z,206.33
2023-04-27T05:59:56.188Z,197.30
2023-04-27T06:02:25.301Z,216.30
2023-04-27T06:04:53.102Z,217.77
2023-04-27T06:07:21.335Z,222.20
2023-04-27T06:09:48.952Z,207.37
2023-04-27T06:12:16.664Z,226.20
2023-04-27T06:14:44.242Z,233.97
2023-04-27T06:17:11.929Z,211.60
2023-04-27T06:19:40.973Z,230.10
2023-04-27T06:22:08.555Z,219.63
2023-04-27T06:24:36.715Z,229.03
2023-04-27T06:27:04.533Z,217.27
2023-04-27T06:29:32.204Z,230.77
2023-04-27T06:32:00.083Z,222.80
2023-04-27T06:34:27.966Z,227.13
2023-04-27T06:36:56.925Z,228.57
2023-04-27T06:39:24.524Z,226.70
2023-04-27T06:41:52.158Z,221.27
2023-04-27T06:44:19.911Z,235.67
2023-04-27T06:46:47.547Z,239.07
2023-04-27T06:49:15.442Z,214.57
2023-04-27T06:51:43.463Z,235.23
2023-04-27T06:54:12.503Z,216.50
2023-04-27T06:56:40.178Z,234.00
2023-04-27T06:59:08.601Z,228.17
2023-04-27T07:01:36.537Z,235.03
2023-04-27T07:04:04.622Z,250.75
2023-04-27T07:06:32.638Z,243.88
2023-04-27T07:09:00.643Z,256.70
2023-04-27T07:11:29.577Z,259.15
2023-04-27T07:13:57.219Z,254.43
2023-04-27T07:16:24.938Z,247.82
2023-04-27T07:18:52.636Z,244.77
2023-04-27T07:21:20.526Z,251.23
2023-04-27T07:23:48.123Z,280.90
2023-04-27T07:26:15.893Z,259.63
2023-04-27T07:28:44.905Z,248.45
2023-04-27T07:31:12.973Z,254.73
2023-04-27T07:33:40.855Z,244.60
2023-04-27T07:36:08.829Z,237.35
2023-04-27T07:38:38.348Z,242.73
2023-04-27T07:41:07.272Z,242.57
2023-04-27T07:43:35.112Z,225.00
2023-04-27T07:46:04.435Z,224.43
2023-04-27T07:48:32.613Z,237.27
2023-04-27T07:51:00.199Z,234.80
2023-04-27T07:53:27.811Z,244.02
2023-04-27T07:55:55.447Z,238.30
2023-04-27T07:58:23.213Z,225.98
2023-04-27T08:00:50.855Z,223.20
2023-04-27T08:03:19.965Z,222.82
2023-04-27T08:05:47.821Z,228.07
2023-04-27T08:08:15.993Z,234.65
2023-04-27T08:10:43.845Z,218.43
2023-04-27T08:13:12.081Z,215.60
2023-04-27T08:15:39.849Z,216.98
2023-04-27T08:18:07.548Z,220.95
2023-04-27T08:20:36.556Z,231.65
2023-04-27T08:23:04.209Z,218.93
2023-04-27T08:25:31.873Z,200.23
2023-04-27T08:27:59.440Z,205.65
2023-04-27T08:30:27.065Z,212.98
2023-04-27T08:32:54.960Z,188.85
2023-04-27T08:35:22.716Z,183.88
2023-04-27T08:37:51.768Z,188.48
2023-04-27T08:40:20.850Z,186.88
2023-04-27T08:42:56.210Z,186.80
2023-04-27T08:45:24.385Z,201.73
2023-04-27T08:47:52.809Z,192.70
2023-04-27T08:50:21.268Z,183.55
2023-04-27T08:52:52.086Z,159.32
2023-04-27T08:55:20.170Z,147.50
2023-04-27T08:57:58.320Z,147.30
2023-04-27T09:00:27.012Z,151.02
2023-04-27T09:02:55.042Z,143.80
2023-04-27T09:05:23.972Z,157.52
2023-04-27T09:08:00.713Z,144.32
2023-04-27T09:10:29.930Z,138.48
2023-04-27T09:12:59.116Z,146.60
2023-04-27T09:15:26.823Z,140.90
2023-04-27T09:17:56.227Z,146.07
2023-04-27T09:20:26.821Z,155.18
2023-04-27T09:22:55.964Z,149.20
2023-04-27T09:25:26.665Z,145.32
2023-04-27T09:27:54.613Z,144.50
2023-04-27T09:30:22.540Z,156.38
2023-04-27T09:32:54.430Z,143.25
2023-04-27T09:35:24.163Z,150.32
2023-04-27T09:37:53.769Z,151.13
2023-04-27T09:40:26.479Z,149.20
2023-04-27T09:42:57.179Z,150.82
2023-04-27T09:45:25.514Z,149.98
2023-04-27T09:47:53.801Z,149.52
2023-04-27T09:50:22.516Z,161.20
2023-04-27T09:52:50.410Z,137.23
2023-04-27T09:55:22.157Z,155.48
2023-04-27T09:57:59.925Z,160.55
2023-04-27T10:00:43.409Z,140.27
2023-04-27T10:03:23.163Z,155.80
2023-04-27T10:06:26.537Z,172.65
2023-04-27T10:08:54.244Z,141.02
2023-04-27T10:11:23.052Z,144.10
2023-04-27T10:13:56.281Z,151.77
2023-04-27T10:16:24.046Z,156.32
2023-04-27T10:18:54.005Z,151.07
2023-04-27T10:21:22.053Z,149.20
2023-04-27T10:23:51.250Z,155.63
2023-04-27T10:26:26.048Z,149.05
2023-04-27T10:29:07.501Z,135.23
2023-04-27T10:31:35.809Z,128.10
2023-04-27T10:34:08.466Z,124.90
2023-04-27T10:36:37.951Z,125.40
2023-04-27T10:39:16.127Z,115.93
2023-04-27T10:41:52.093Z,114.72
2023-04-27T10:44:27.094Z,118.22
2023-04-27T10:46:55.986Z,110.35
2023-04-27T10:49:24.163Z,117.63
2023-04-27T10:51:52.455Z,107.25
2023-04-27T10:54:20.283Z,102.38
2023-04-27T10:56:48.219Z,100.70
2023-04-27T10:59:16.266Z,90.63
2023-04-27T11:01:50.027Z,83.43
2023-04-27T11:04:18.541Z,89.75
2023-04-27T11:06:47.112Z,94.88
2023-04-27T11:09:15.705Z,90.72
2023-04-27T11:11:46.809Z,87.55
2023-04-27T11:14:21.616Z,93.53
2023-04-27T11:16:51.086Z,92.07
2023-04-27T11:19:18.719Z,96.88
2023-04-27T11:21:46.523Z,95.18
2023-04-27T11:24:15.553Z,100.50
2023-04-27T11:26:43.345Z,92.53
2023-04-27T11:29:13.860Z,97.65
2023-04-27T11:31:47.378Z,102.72
2023-04-27T11:34:19.722Z,94.43
2023-04-27T11:37:07.113Z,93.07
2023-04-27T11:39:42.965Z,95.43
2023-04-27T11:42:19.051Z,94.80
2023-04-27T11:44:53.151Z,91.85
2023-04-27T11:47:22.384Z,92.70
2023-04-27T11:49:52.845Z,99.13
2023-04-27T11:52:20.725Z,88.03
2023-04-27T11:54:49.612Z,106.90
2023-04-27T11:57:17.446Z,101.75
2023-04-27T11:59:45.118Z,99.43
2023-04-27T12:02:12.783Z,103.65
2023-04-27T12:04:40.731Z,114.20
2023-04-27T12:07:10.214Z,119.93
2023-04-27T12:09:37.830Z,108.07
2023-04-27T12:12:06.371Z,112.18
2023-04-27T12:14:34.061Z,114.18
2023-04-27T12:17:02.007Z,110.78
2023-04-27T12:19:30.471Z,98.75
2023-04-27T12:21:58.513Z,106.20
2023-04-27T12:24:27.739Z,106.47
2023-04-27T12:26:55.483Z,105.38
2023-04-27T12:29:24.415Z,107.53
2023-04-27T12:31:52.256Z,109.20
2023-04-27T12:34:20.113Z,117.80
2023-04-27T12:36:47.952Z,114.57
2023-04-27T12:39:17.129Z,120.57
2023-04-27T12:41:47.132Z,105.00
2023-04-27T12:44:16.539Z,111.47
2023-04-27T12:46:45.107Z,121.13
2023-04-27T12:49:13.393Z,127.97
2023-04-27T12:51:41.317Z,128.05
2023-04-27T12:54:10.052Z,119.78
2023-04-27T12:56:37.762Z,118.15
2023-04-27T12:59:06.816Z,124.78
2023-04-27T13:01:34.920Z,113.63
2023-04-27T13:04:05.530Z,122.38
2023-04-27T13:06:33.565Z,118.55
2023-04-27T13:09:01.305Z,130.48
2023-04-27T13:11:29.031Z,117.00
2023-04-27T13:13:56.641Z,130.32
2023-04-27T13:16:26.413Z,126.03
2023-04-27T13:18:55.467Z,116.40
2023-04-27T13:21:23.367Z,117.20
2023-04-27T13:23:53.592Z,120.43
2023-04-27T13:26:22.376Z,120.72
2023-04-27T13:28:50.136Z,128.90
2023-04-27T13:31:17.889Z,116.10
2023-04-27T13:33:47.005Z,127.78
2023-04-27T13:36:14.698Z,122.00
2023-04-27T13:38:42.707Z,117.82
2023-04-27T13:41:10.335Z,133.77
2023-04-27T13:43:37.966Z,129.43
2023-04-27T13:46:05.800Z,124.07
2023-04-27T13:48:33.481Z,127.03
2023-04-27T13:51:02.466Z,126.75
2023-04-27T13:53:30.213Z,129.80
2023-04-27T13:55:58.914Z,129.13
2023-04-27T13:58:28.480Z,128.35
2023-04-27T14:00:56.456Z,133.35
2023-04-27T14:03:24.531Z,123.28
2023-04-27T14:05:52.192Z,122.57
2023-04-27T14:08:21.687Z,131.70
2023-04-27T14:10:49.893Z,125.28
2023-04-27T14:13:19.754Z,137.68
2023-04-27T14:15:47.415Z,130.85
2023-04-27T14:18:15.552Z,124.22
2023-04-27T14:20:45.341Z,122.53
2023-04-27T14:23:13.184Z,129.38
2023-04-27T14:25:42.161Z,130.77
2023-04-27T14:28:12.254Z,122.53
2023-04-27T14:30:40.002Z,111.95
2023-04-27T14:33:07.840Z,113.28
2023-04-27T14:35:37.008Z,123.75
2023-04-27T14:38:05.585Z,119.28
2023-04-27T14:40:33.914Z,118.40
2023-04-27T14:43:02.931Z,120.05
2023-04-27T14:45:36.976Z,121.13
2023-04-27T14:48:11.629Z,110.45
2023-04-27T14:50:39.479Z,113.20
2023-04-27T14:53:07.068Z,108.32
2023-04-27T14:55:34.956Z,118.68
2023-04-27T14:58:04.023Z,114.40
2023-04-27T15:00:31.663Z,108.78
2023-04-27T15:02:59.308Z,112.40
2023-04-27T15:05:26.966Z,122.68
2023-04-27T15:07:54.563Z,121.75
2023-04-27T15:10:22.478Z,126.47
2023-04-27T15:12:50.082Z,120.82
2023-04-27T15:15:19.370Z,131.02
2023-04-27T15:17:46.981Z,131.68
2023-04-27T15:20:15.019Z,131.07
2023-04-27T15:22:42.702Z,126.75
2023-04-27T15:25:11.217Z,136.90
2023-04-27T15:27:39.927Z,129.50
2023-04-27T15:30:08.836Z,122.05
2023-04-27T15:32:37.921Z,135.52
2023-04-27T15:35:06.723Z,129.23
2023-04-27T15:37:36.581Z,130.90
2023-04-27T15:40:07.362Z,122.07
2023-04-27T15:42:35.052Z,120.38
2023-04-27T15:45:02.832Z,127.38
2023-04-27T15:47:30.609Z,124.80
2023-04-27T15:49:59.540Z,123.45
2023-04-27T15:52:27.370Z,122.68
2023-04-27T15:54:55.768Z,117.00
2023-04-27T15:57:23.416Z,119.93
2023-04-27T15:59:51.013Z,119.03
2023-04-27T16:02:19.353Z,110.47
2023-04-27T16:04:47.081Z,117.25
2023-04-27T16:07:16.110Z,112.50
2023-04-27T16:09:43.793Z,119.55
2023-04-27T16:12:11.452Z,116.30
2023-04-27T16:14:39.205Z,115.55
2023-04-27T16:17:06.846Z,122.10
2023-04-27T16:19:34.466Z,116.85
2023-04-27T16:22:04.029Z,109.45
2023-04-27T16:24:33.025Z,111.53
2023-04-27T16:27:01.285Z,111.20
2023-04-27T16:29:29.376Z,116.47
2023-04-27T16:31:57.090Z,105.85
2023-04-27T16:34:24.892Z,113.05
2023-04-27T16:36:52.562Z,113.18
2023-04-27T16:39:20.326Z,100.03
2023-04-27T16:41:49.764Z,102.82
2023-04-27T16:44:17.513Z,96.20
2023-04-27T16:46:45.475Z,92.20
2023-04-27T16:49:13.876Z,101.00
2023-04-27T16:51:42.207Z,99.15
2023-04-27T16:54:10.492Z,101.95
2023-04-27T16:56:38.153Z,97.97
2023-04-27T16:59:07.627Z,91.85
2023-04-27T17:01:35.402Z,90.93
2023-04-27T17:04:03.409Z,85.82
2023-04-27T17:06:31.381Z,86.22
2023-04-27T17:08:59.492Z,95.25
2023-04-27T17:11:27.392Z,95.47
2023-04-27T17:13:55.421Z,98.55
2023-04-27T17:16:25.014Z,104.57
2023-04-27T17:18:52.984Z,111.40
2023-04-27T17:21:22.614Z,120.32
2023-04-27T17:23:52.008Z,119.28
2023-04-27T17:26:21.440Z,125.10
2023-04-27T17:28:50.474Z,151.95
2023-04-27T17:31:18.192Z,135.82
2023-04-27T17:33:47.360Z,152.00
2023-04-27T17:36:15.143Z,155.75
2023-04-27T17:38:42.866Z,158.77
2023-04-27T17:41:10.995Z,166.88
2023-04-27T17:43:38.731Z,160.02
2023-04-27T17:46:08.027Z,180.45
2023-04-27T17:48:36.202Z,164.23
2023-04-27T17:51:05.471Z,172.55
2023-04-27T17:53:33.149Z,184.63
2023-04-27T17:56:00.956Z,173.65
2023-04-27T17:58:28.780Z,177.30
2023-04-27T18:00:56.405Z,172.90
2023-04-27T18:03:24.405Z,182.40
2023-04-27T18:05:52.606Z,187.10
2023-04-27T18:08:21.541Z,201.90
2023-04-27T18:10:49.218Z,198.93
2023-04-27T18:13:17.250Z,207.02
2023-04-27T18:15:44.910Z,230.00
2023-04-27T18:18:16.748Z,229.77
2023-04-27T18:20:44.899Z,254.68
2023-04-27T18:23:12.594Z,248.10
2023-04-27T18:25:41.595Z,259.67
2023-04-27T18:28:09.957Z,254.93
2023-04-27T18:30:37.644Z,256.60
2023-04-27T18:33:05.517Z,271.35
2023-04-27T18:35:33.265Z,254.85
2023-04-27T18:38:00.859Z,251.40
2023-04-27T18:40:28.590Z,268.17
2023-04-27T18:42:57.632Z,252.82
2023-04-27T18:45:25.396Z,295.75
2023-04-27T18:47:53.026Z,271.50
2023-04-27T18:50:20.824Z,267.80
2023-04-27T18:52:48.476Z,264.40
2023-04-27T18:55:16.797Z,283.92
2023-04-27T18:57:44.518Z,259.45
2023-04-27T19:00:14.949Z,273.98
2023-04-27T19:02:42.615Z,275.20
2023-04-27T19:05:13.478Z,261.95
2023-04-27T19:07:41.405Z,267.48
2023-04-27T19:10:10.323Z,254.40
2023-04-27T19:12:38.387Z,272.25
2023-04-27T19:15:06.626Z,275.48
2023-04-27T19:17:35.776Z,262.17
2023-04-27T19:20:03.617Z,266.42
2023-04-27T19:22:34.098Z,278.13
2023-04-27T19:25:01.983Z,248.20
2023-04-27T19:27:29.986Z,243.82
2023-04-27T19:29:58.587Z,251.55
2023-04-27T19:32:27.693Z,223.43
2023-04-27T19:34:57.851Z,228.15
2023-04-27T19:37:26.035Z,227.68
2023-04-27T19:39:53.706Z,247.02
2023-04-27T19:42:21.347Z,236.75
2023-04-27T19:44:49.028Z,224.00
2023-04-27T19:47:16.805Z,227.20
2023-04-27T19:49:44.548Z,225.10
2023-04-27T19:52:13.910Z,228.85
2023-04-27T19:54:41.684Z,232.50
2023-04-27T19:57:09.362Z,218.27
2023-04-27T19:59:37.798Z,233.45
2023-04-27T20:02:05.471Z,237.38
2023-04-27T20:04:33.457Z,226.95
2023-04-27T20:07:03.254Z,229.75
2023-04-27T20:09:33.664Z,236.00
2023-04-27T20:12:01.467Z,219.95
2023-04-27T20:14:31.183Z,217.68
2023-04-27T20:16:58.824Z,235.80
2023-04-27T20:19:26.508Z,215.65
2023-04-27T20:21:54.414Z,214.77
2023-04-27T20:24:22.554Z,223.55
2023-04-27T20:26:51.535Z,220.00
2023-04-27T20:29:19.227Z,228.40
2023-04-27T20:31:48.411Z,220.70
2023-04-27T20:34:16.271Z,219.27
2023-04-27T20:36:44.388Z,243.60
2023-04-27T20:39:12.970Z,217.50
2023-04-27T20:41:41.875Z,208.68
2023-04-27T20:44:11.719Z,217.25
2023-04-27T20:46:39.452Z,216.45
2023-04-27T20:49:07.316Z,216.57
2023-04-27T20:51:35.021Z,219.43
2023-04-27T20:54:02.777Z,232.60
2023-04-27T20:56:31.376Z,208.70
2023-04-27T20:58:59.137Z,208.30
2023-04-27T21:01:28.255Z,215.43
2023-04-27T21:03:56.024Z,212.32
2023-04-27T21:06:23.731Z,235.85
2023-04-27T21:08:51.573Z,216.48
2023-04-27T21:11:20.477Z,220.45
2023-04-27T21:13:48.087Z,223.02
2023-04-27T21:16:15.852Z,209.65
2023-04-27T21:18:44.905Z,202.50
2023-04-27T21:21:12.524Z,207.68
2023-04-27T21:23:40.651Z,206.98
2023-04-27T21:26:08.885Z,208.38
2023-04-27T21:28:36.924Z,213.25
2023-04-27T21:31:04.550Z,198.20
2023-04-27T21:33:32.271Z,199.00
2023-04-27T21:36:03.625Z,193.40
2023-04-27T21:38:31.413Z,198.38
2023-04-27T21:40:59.792Z,192.48
2023-04-27T21:43:27.503Z,198.90
2023-04-27T21:45:55.335Z,195.27
2023-04-27T21:48:23.012Z,189.63
2023-04-27T21:50:51.291Z,189.48
2023-04-27T21:53:20.250Z,204.93
2023-04-27T21:55:49.338Z,201.52
2023-04-27T21:58:17.158Z,201.52
2023-04-27T22:00:44.844Z,199.63
2023-04-27T22:03:12.861Z,194.00
2023-04-27T22:05:40.627Z,205.85
2023-04-27T22:08:08.956Z,197.52
2023-04-27T22:10:38.037Z,191.60
2023-04-27T22:13:17.709Z,203.88
2023-04-27T22:15:46.463Z,190.75
2023-04-27T22:18:14.790Z,197.65
2023-04-27T22:20:42.929Z,199.35
2023-04-27T22:23:11.481Z,188.35
2023-04-27T22:25:42.722Z,187.38
2023-04-27T22:28:11.029Z,181.65
2023-04-27T22:30:39.848Z,191.02
2023-04-27T22:33:08.017Z,185.95
2023-04-27T22:35:36.885Z,182.73
2023-04-27T22:38:04.685Z,193.57
2023-04-27T22:40:32.338Z,186.27
2023-04-27T22:43:01.637Z,213.65
2023-04-27T22:45:29.287Z,202.55
2023-04-27T22:47:57.514Z,200.77
2023-04-27T22:50:25.215Z,190.50
2023-04-27T22:52:53.927Z,194.77
2023-04-27T22:55:22.199Z,199.27
2023-04-27T22:57:50.701Z,188.70
2023-04-27T23:00:19.830Z,185.82
2023-04-27T23:02:47.724Z,200.55
2023-04-27T23:05:16.523Z,197.55
2023-04-27T23:07:44.325Z,203.73
2023-04-27T23:10:12.905Z,196.10
2023-04-27T23:12:40.658Z,189.75
2023-04-27T23:15:09.386Z,186.68
2023-04-27T23:17:38.452Z,193.65
2023-04-27T23:20:24.057Z,194.73
2023-04-27T23:22:55.513Z,177.00
2023-04-27T23:25:23.214Z,186.55
2023-04-27T23:27:52.420Z,204.15
2023-04-27T23:30:21.247Z,196.55
2023-04-27T23:32:50.470Z,178.20
2023-04-27T23:35:18.185Z,199.48
2023-04-27T23:37:45.968Z,207.30
2023-04-27T23:40:14.115Z,214.10
2023-04-27T23:42:41.875Z,203.98
2023-04-27T23:45:10.027Z,209.80
2023-04-27T23:47:37.915Z,205.10
2023-04-27T23:50:07.925Z,219.95
2023-04-27T23:52:35.540Z,192.30
2023-04-27T23:55:03.146Z,209.27
2023-04-27T23:57:30.816Z,198.50
2023-04-27T23:59:58.414Z,218.60
